sensor_id;sensor_type;location;lat;lon;timestamp;temperature;humidity
19906;DHT22;10115;50.906;4.438;2023-10-31T00:00:31;10.60;99.90
19906;DHT22;10115;50.906;4.438;2023-10-31T00:02:57;10.60;99.90
19906;DHT22;10115;50.906;4.438;2023-10-31T00:05:22;10.60;99.90
19906;DHT22;10115;50.906;4.438;2023-10-31T00:07:48;10.60;99.90
19906;DHT22;10115;50.906;4.438;2023-10-31T00:10:13;10.60;99.90
19906;DHT22;10115;50.906;4.438;2023-10-31T00:12:39;10.60;99.90
19906;DHT22;10115;50.906;4.438;2023-10-31T00:15:05;10.60;99.90
19906;DHT22;10115;50.906;4.438;2023-10-31T00:17:31;10.60;99.90
19906;DHT22;10115;50.906;4.438;2023-10-31T00:19:56;10.60;99.90
19906;DHT22;10115;50.906;4.438;2023-10-31T00:22:22;10.60;99.90
19906;DHT22;10115;50.906;4.438;2023-10-31T00:24:48;10.60;99.90
19906;DHT22;10115;50.906;4.438;2023-10-31T00:27:13;10.60;99.90
19906;DHT22;10115;50.906;4.438;2023-10-31T00:29:40;10.60;99.90
19906;DHT22;10115;50.906;4.438;2023-10-31T00:32:06;10.60;99.90
19906;DHT22;10115;50.906;4.438;2023-10-31T00:34:31;10.60;99.90
19906;DHT22;10115;50.906;4.438;2023-10-31T00:36:57;10.60;99.90
19906;DHT22;10115;50.906;4.438;2023-10-31T00:39:23;10.60;99.90
19906;DHT22;10115;50.906;4.438;2023-10-31T00:41:48;10.60;99.90
19906;DHT22;10115;50.906;4.438;2023-10-31T00:44:14;10.60;99.90
19906;DHT22;10115;50.906;4.438;2023-10-31T00:46:41;10.60;99.90
19906;DHT22;10115;50.906;4.438;2023-10-31T00:49:06;10.60;99.90
19906;DHT22;10115;50.906;4.438;2023-10-31T00:51:32;10.60;99.90
19906;DHT22;10115;50.906;4.438;2023-10-31T00:53:58;10.60;99.90
19906;DHT22;10115;50.906;4.438;2023-10-31T00:56:24;10.60;99.90
19906;DHT22;10115;50.906;4.438;2023-10-31T00:58:49;10.60;99.90
19906;DHT22;10115;50.906;4.438;2023-10-31T01:01:15;10.60;99.90
19906;DHT22;10115;50.906;4.438;2023-10-31T01:03:42;10.60;99.90
19906;DHT22;10115;50.906;4.438;2023-10-31T01:06:07;10.60;99.90
19906;DHT22;10115;50.906;4.438;2023-10-31T01:08:34;10.60;99.90
19906;DHT22;10115;50.906;4.438;2023-10-31T01:11:00;10.60;99.90
19906;DHT22;10115;50.906;4.438;2023-10-31T01:13:25;10.60;99.90
19906;DHT22;10115;50.906;4.438;2023-10-31T01:15:51;10.60;99.90
19906;DHT22;10115;50.906;4.438;2023-10-31T01:18:17;10.60;99.90
19906;DHT22;10115;50.906;4.438;2023-10-31T01:20:42;10.60;99.90
19906;DHT22;10115;50.906;4.438;2023-10-31T01:23:08;10.60;99.90
19906;DHT22;10115;50.906;4.438;2023-10-31T01:25:34;10.60;99.90
19906;DHT22;10115;50.906;4.438;2023-10-31T01:27:59;10.50;99.90
19906;DHT22;10115;50.906;4.438;2023-10-31T01:30:25;10.60;99.90
19906;DHT22;10115;50.906;4.438;2023-10-31T01:32:51;10.60;99.90
19906;DHT22;10115;50.906;4.438;2023-10-31T01:35:16;10.50;99.90
19906;DHT22;10115;50.906;4.438;2023-10-31T01:37:42;10.60;99.90
19906;DHT22;10115;50.906;4.438;2023-10-31T01:40:08;10.50;99.90
19906;DHT22;10115;50.906;4.438;2023-10-31T01:42:34;10.50;99.90
19906;DHT22;10115;50.906;4.438;2023-10-31T01:45:00;10.50;99.90
19906;DHT22;10115;50.906;4.438;2023-10-31T01:47:26;10.50;99.90
19906;DHT22;10115;50.906;4.438;2023-10-31T01:49:52;10.40;99.90
19906;DHT22;10115;50.906;4.438;2023-10-31T01:52:18;10.40;99.90
19906;DHT22;10115;50.906;4.438;2023-10-31T01:54:44;10.40;99.90
19906;DHT22;10115;50.906;4.438;2023-10-31T01:57:10;10.40;99.90
19906;DHT22;10115;50.906;4.438;2023-10-31T01:59:36;10.40;99.90
19906;DHT22;10115;50.906;4.438;2023-10-31T02:02:03;10.40;99.90
19906;DHT22;10115;50.906;4.438;2023-10-31T02:04:30;10.40;99.90
19906;DHT22;10115;50.906;4.438;2023-10-31T02:06:56;10.50;99.90
19906;DHT22;10115;50.906;4.438;2023-10-31T02:09:22;10.40;99.90
19906;DHT22;10115;50.906;4.438;2023-10-31T02:11:50;10.40;99.90
19906;DHT22;10115;50.906;4.438;2023-10-31T02:14:16;10.50;99.90
19906;DHT22;10115;50.906;4.438;2023-10-31T02:16:41;10.50;99.90
19906;DHT22;10115;50.906;4.438;2023-10-31T02:19:07;10.40;99.90
19906;DHT22;10115;50.906;4.438;2023-10-31T02:21:33;10.50;99.90
19906;DHT22;10115;50.906;4.438;2023-10-31T02:24:00;10.50;99.90
19906;DHT22;10115;50.906;4.438;2023-10-31T02:26:33;10.50;99.90
19906;DHT22;10115;50.906;4.438;2023-10-31T02:29:00;10.40;99.90
19906;DHT22;10115;50.906;4.438;2023-10-31T02:31:26;10.40;99.90
19906;DHT22;10115;50.906;4.438;2023-10-31T02:33:52;10.40;99.90
19906;DHT22;10115;50.906;4.438;2023-10-31T02:36:18;10.40;99.90
19906;DHT22;10115;50.906;4.438;2023-10-31T02:38:44;10.40;99.90
19906;DHT22;10115;50.906;4.438;2023-10-31T02:41:10;10.40;99.90
19906;DHT22;10115;50.906;4.438;2023-10-31T02:43:36;10.40;99.90
19906;DHT22;10115;50.906;4.438;2023-10-31T02:46:01;10.40;99.90
19906;DHT22;10115;50.906;4.438;2023-10-31T02:48:27;10.40;99.90
19906;DHT22;10115;50.906;4.438;2023-10-31T02:50:53;10.40;99.90
19906;DHT22;10115;50.906;4.438;2023-10-31T02:53:18;10.30;99.90
19906;DHT22;10115;50.906;4.438;2023-10-31T02:55:44;10.40;99.90
19906;DHT22;10115;50.906;4.438;2023-10-31T02:58:10;10.40;99.90
19906;DHT22;10115;50.906;4.438;2023-10-31T03:00:36;10.40;99.90
19906;DHT22;10115;50.906;4.438;2023-10-31T03:03:02;10.30;99.90
19906;DHT22;10115;50.906;4.438;2023-10-31T03:05:28;10.30;99.90
19906;DHT22;10115;50.906;4.438;2023-10-31T03:07:53;10.30;99.90
19906;DHT22;10115;50.906;4.438;2023-10-31T03:10:20;10.30;99.90
19906;DHT22;10115;50.906;4.438;2023-10-31T03:12:47;10.30;99.90
19906;DHT22;10115;50.906;4.438;2023-10-31T03:15:12;10.30;99.90
19906;DHT22;10115;50.906;4.438;2023-10-31T03:17:38;10.30;99.90
19906;DHT22;10115;50.906;4.438;2023-10-31T03:20:04;10.30;99.90
19906;DHT22;10115;50.906;4.438;2023-10-31T03:22:30;10.30;99.90
19906;DHT22;10115;50.906;4.438;2023-10-31T03:24:56;10.30;99.90
19906;DHT22;10115;50.906;4.438;2023-10-31T03:27:21;10.30;99.90
19906;DHT22;10115;50.906;4.438;2023-10-31T03:29:48;10.20;99.90
19906;DHT22;10115;50.906;4.438;2023-10-31T03:32:14;10.20;99.90
19906;DHT22;10115;50.906;4.438;2023-10-31T03:34:40;10.20;99.90
19906;DHT22;10115;50.906;4.438;2023-10-31T03:37:05;10.20;99.90
19906;DHT22;10115;50.906;4.438;2023-10-31T03:39:31;10.10;99.90
19906;DHT22;10115;50.906;4.438;2023-10-31T03:41:57;10.00;99.90
19906;DHT22;10115;50.906;4.438;2023-10-31T03:44:23;10.00;99.90
19906;DHT22;10115;50.906;4.438;2023-10-31T03:46:48;10.00;99.90
19906;DHT22;10115;50.906;4.438;2023-10-31T03:49:14;9.90;99.90
19906;DHT22;10115;50.906;4.438;2023-10-31T03:51:39;9.90;99.90
19906;DHT22;10115;50.906;4.438;2023-10-31T03:54:05;9.90;99.90
19906;DHT22;10115;50.906;4.438;2023-10-31T03:56:37;9.80;99.90
19906;DHT22;10115;50.906;4.438;2023-10-31T03:59:03;9.80;99.90
19906;DHT22;10115;50.906;4.438;2023-10-31T04:01:29;9.80;99.90
19906;DHT22;10115;50.906;4.438;2023-10-31T04:03:54;9.70;99.90
19906;DHT22;10115;50.906;4.438;2023-10-31T04:06:20;9.80;99.90
19906;DHT22;10115;50.906;4.438;2023-10-31T04:08:45;9.80;99.90
19906;DHT22;10115;50.906;4.438;2023-10-31T04:11:11;9.80;99.90
19906;DHT22;10115;50.906;4.438;2023-10-31T04:13:37;9.80;99.90
19906;DHT22;10115;50.906;4.438;2023-10-31T04:16:02;9.80;99.90
19906;DHT22;10115;50.906;4.438;2023-10-31T04:18:28;9.80;99.90
19906;DHT22;10115;50.906;4.438;2023-10-31T04:20:54;9.80;99.90
19906;DHT22;10115;50.906;4.438;2023-10-31T04:23:19;9.70;99.90
19906;DHT22;10115;50.906;4.438;2023-10-31T04:25:45;9.70;99.90
19906;DHT22;10115;50.906;4.438;2023-10-31T04:28:11;9.70;99.90
19906;DHT22;10115;50.906;4.438;2023-10-31T04:30:38;9.70;99.90
19906;DHT22;10115;50.906;4.438;2023-10-31T04:33:04;9.70;99.90
19906;DHT22;10115;50.906;4.438;2023-10-31T04:35:29;9.70;99.90
19906;DHT22;10115;50.906;4.438;2023-10-31T04:37:55;9.70;99.90
19906;DHT22;10115;50.906;4.438;2023-10-31T04:40:22;9.70;99.90
19906;DHT22;10115;50.906;4.438;2023-10-31T04:42:47;9.70;99.90
19906;DHT22;10115;50.906;4.438;2023-10-31T04:45:13;9.70;99.90
19906;DHT22;10115;50.906;4.438;2023-10-31T04:47:40;9.70;99.90
19906;DHT22;10115;50.906;4.438;2023-10-31T04:50:05;9.70;99.90
19906;DHT22;10115;50.906;4.438;2023-10-31T04:52:31;9.70;99.90
19906;DHT22;10115;50.906;4.438;2023-10-31T04:54:57;9.70;99.90
19906;DHT22;10115;50.906;4.438;2023-10-31T04:57:22;9.70;99.90
19906;DHT22;10115;50.906;4.438;2023-10-31T04:59:48;9.70;99.90
19906;DHT22;10115;50.906;4.438;2023-10-31T05:02:14;9.80;99.90
19906;DHT22;10115;50.906;4.438;2023-10-31T05:04:40;9.80;99.90
19906;DHT22;10115;50.906;4.438;2023-10-31T05:07:08;9.80;99.90
19906;DHT22;10115;50.906;4.438;2023-10-31T05:09:35;9.80;99.90
19906;DHT22;10115;50.906;4.438;2023-10-31T05:12:01;9.80;99.90
19906;DHT22;10115;50.906;4.438;2023-10-31T05:14:27;9.80;99.90
19906;DHT22;10115;50.906;4.438;2023-10-31T05:16:52;9.80;99.90
19906;DHT22;10115;50.906;4.438;2023-10-31T05:19:18;9.80;99.90
19906;DHT22;10115;50.906;4.438;2023-10-31T05:21:43;9.80;99.90
19906;DHT22;10115;50.906;4.438;2023-10-31T05:24:09;9.80;99.90
19906;DHT22;10115;50.906;4.438;2023-10-31T05:26:35;9.90;99.90
19906;DHT22;10115;50.906;4.438;2023-10-31T05:29:00;9.90;99.90
19906;DHT22;10115;50.906;4.438;2023-10-31T05:31:26;9.90;99.90
19906;DHT22;10115;50.906;4.438;2023-10-31T05:33:52;9.90;99.90
19906;DHT22;10115;50.906;4.438;2023-10-31T05:36:25;10.00;99.90
19906;DHT22;10115;50.906;4.438;2023-10-31T05:38:51;10.00;99.90
19906;DHT22;10115;50.906;4.438;2023-10-31T05:41:16;10.00;99.90
19906;DHT22;10115;50.906;4.438;2023-10-31T05:43:42;10.00;99.90
19906;DHT22;10115;50.906;4.438;2023-10-31T05:46:08;10.00;99.90
19906;DHT22;10115;50.906;4.438;2023-10-31T05:48:40;10.00;99.90
19906;DHT22;10115;50.906;4.438;2023-10-31T05:51:13;10.10;99.90
19906;DHT22;10115;50.906;4.438;2023-10-31T05:53:40;10.00;99.90
19906;DHT22;10115;50.906;4.438;2023-10-31T05:56:07;10.10;99.90
19906;DHT22;10115;50.906;4.438;2023-10-31T05:58:33;10.10;99.90
19906;DHT22;10115;50.906;4.438;2023-10-31T06:00:58;10.10;99.90
19906;DHT22;10115;50.906;4.438;2023-10-31T06:03:24;10.10;99.90
19906;DHT22;10115;50.906;4.438;2023-10-31T06:05:50;10.00;99.90
19906;DHT22;10115;50.906;4.438;2023-10-31T06:08:15;10.00;99.90
19906;DHT22;10115;50.906;4.438;2023-10-31T06:10:41;10.10;99.90
19906;DHT22;10115;50.906;4.438;2023-10-31T06:13:07;10.10;99.90
19906;DHT22;10115;50.906;4.438;2023-10-31T06:15:32;10.10;99.90
19906;DHT22;10115;50.906;4.438;2023-10-31T06:17:58;10.10;99.90
19906;DHT22;10115;50.906;4.438;2023-10-31T06:20:23;10.10;99.90
19906;DHT22;10115;50.906;4.438;2023-10-31T06:22:49;10.00;99.90
19906;DHT22;10115;50.906;4.438;2023-10-31T06:25:15;10.10;99.90
19906;DHT22;10115;50.906;4.438;2023-10-31T06:27:40;10.10;99.90
19906;DHT22;10115;50.906;4.438;2023-10-31T06:30:06;10.10;99.90
19906;DHT22;10115;50.906;4.438;2023-10-31T06:32:32;10.00;99.90
19906;DHT22;10115;50.906;4.438;2023-10-31T06:34:58;10.10;99.90
19906;DHT22;10115;50.906;4.438;2023-10-31T06:37:23;10.10;99.90
19906;DHT22;10115;50.906;4.438;2023-10-31T06:39:49;10.10;99.90
19906;DHT22;10115;50.906;4.438;2023-10-31T06:42:15;10.10;99.90
19906;DHT22;10115;50.906;4.438;2023-10-31T06:44:40;10.10;99.90
19906;DHT22;10115;50.906;4.438;2023-10-31T06:47:06;10.10;99.90
19906;DHT22;10115;50.906;4.438;2023-10-31T06:49:31;10.10;99.90
19906;DHT22;10115;50.906;4.438;2023-10-31T06:51:57;10.00;99.90
19906;DHT22;10115;50.906;4.438;2023-10-31T06:54:23;10.10;99.90
19906;DHT22;10115;50.906;4.438;2023-10-31T06:56:48;10.10;99.90
19906;DHT22;10115;50.906;4.438;2023-10-31T06:59:14;10.20;99.90
19906;DHT22;10115;50.906;4.438;2023-10-31T07:01:40;10.10;99.90
19906;DHT22;10115;50.906;4.438;2023-10-31T07:04:05;10.10;99.90
19906;DHT22;10115;50.906;4.438;2023-10-31T07:06:32;10.10;99.90
19906;DHT22;10115;50.906;4.438;2023-10-31T07:08:57;10.10;99.90
19906;DHT22;10115;50.906;4.438;2023-10-31T07:11:25;10.10;99.90
19906;DHT22;10115;50.906;4.438;2023-10-31T07:13:51;10.10;99.90
19906;DHT22;10115;50.906;4.438;2023-10-31T07:16:16;10.10;99.90
19906;DHT22;10115;50.906;4.438;2023-10-31T07:18:42;10.10;99.90
19906;DHT22;10115;50.906;4.438;2023-10-31T07:21:08;10.10;99.90
19906;DHT22;10115;50.906;4.438;2023-10-31T07:23:33;10.10;99.90
19906;DHT22;10115;50.906;4.438;2023-10-31T07:25:59;10.00;99.90
19906;DHT22;10115;50.906;4.438;2023-10-31T07:28:25;10.10;99.90
19906;DHT22;10115;50.906;4.438;2023-10-31T07:30:50;10.10;99.90
19906;DHT22;10115;50.906;4.438;2023-10-31T07:33:16;10.20;99.90
19906;DHT22;10115;50.906;4.438;2023-10-31T07:35:41;10.20;99.90
19906;DHT22;10115;50.906;4.438;2023-10-31T07:38:07;10.20;99.90
19906;DHT22;10115;50.906;4.438;2023-10-31T07:40:33;10.10;99.90
19906;DHT22;10115;50.906;4.438;2023-10-31T07:42:58;10.20;99.90
19906;DHT22;10115;50.906;4.438;2023-10-31T07:45:24;10.30;99.90
19906;DHT22;10115;50.906;4.438;2023-10-31T07:47:50;10.30;99.90
19906;DHT22;10115;50.906;4.438;2023-10-31T07:50:15;10.50;99.90
19906;DHT22;10115;50.906;4.438;2023-10-31T07:52:41;10.50;99.90
19906;DHT22;10115;50.906;4.438;2023-10-31T07:55:09;10.50;99.90
19906;DHT22;10115;50.906;4.438;2023-10-31T07:57:36;10.50;99.90
19906;DHT22;10115;50.906;4.438;2023-10-31T08:00:02;10.40;99.90
19906;DHT22;10115;50.906;4.438;2023-10-31T08:02:28;10.40;99.90
19906;DHT22;10115;50.906;4.438;2023-10-31T08:04:54;10.40;99.90
19906;DHT22;10115;50.906;4.438;2023-10-31T08:07:19;10.40;99.90
19906;DHT22;10115;50.906;4.438;2023-10-31T08:09:45;10.40;99.90
19906;DHT22;10115;50.906;4.438;2023-10-31T08:12:10;10.40;99.90
19906;DHT22;10115;50.906;4.438;2023-10-31T08:14:36;10.40;99.90
19906;DHT22;10115;50.906;4.438;2023-10-31T08:17:02;10.50;99.90
19906;DHT22;10115;50.906;4.438;2023-10-31T08:19:28;10.50;99.90
19906;DHT22;10115;50.906;4.438;2023-10-31T08:21:53;10.60;99.90
19906;DHT22;10115;50.906;4.438;2023-10-31T08:24:19;10.60;99.90
19906;DHT22;10115;50.906;4.438;2023-10-31T08:26:44;10.60;99.90
19906;DHT22;10115;50.906;4.438;2023-10-31T08:29:10;10.70;99.90
19906;DHT22;10115;50.906;4.438;2023-10-31T08:31:36;10.70;99.90
19906;DHT22;10115;50.906;4.438;2023-10-31T08:34:01;10.60;99.90
19906;DHT22;10115;50.906;4.438;2023-10-31T08:36:27;10.50;99.90
19906;DHT22;10115;50.906;4.438;2023-10-31T08:38:53;10.50;99.90
19906;DHT22;10115;50.906;4.438;2023-10-31T08:41:19;10.50;99.90
19906;DHT22;10115;50.906;4.438;2023-10-31T08:43:46;10.50;99.90
19906;DHT22;10115;50.906;4.438;2023-10-31T08:46:12;10.50;99.90
19906;DHT22;10115;50.906;4.438;2023-10-31T08:48:38;10.40;99.90
19906;DHT22;10115;50.906;4.438;2023-10-31T08:51:04;10.40;99.90
19906;DHT22;10115;50.906;4.438;2023-10-31T08:53:29;10.40;99.90
19906;DHT22;10115;50.906;4.438;2023-10-31T08:55:55;10.40;99.90
19906;DHT22;10115;50.906;4.438;2023-10-31T08:58:22;10.40;99.90
19906;DHT22;10115;50.906;4.438;2023-10-31T09:00:47;10.50;99.90
19906;DHT22;10115;50.906;4.438;2023-10-31T09:03:13;10.50;99.90
19906;DHT22;10115;50.906;4.438;2023-10-31T09:05:40;10.60;99.90
19906;DHT22;10115;50.906;4.438;2023-10-31T09:08:06;10.60;99.90
19906;DHT22;10115;50.906;4.438;2023-10-31T09:10:33;10.70;99.90
19906;DHT22;10115;50.906;4.438;2023-10-31T09:12:59;10.80;99.90
19906;DHT22;10115;50.906;4.438;2023-10-31T09:15:24;10.90;99.90
19906;DHT22;10115;50.906;4.438;2023-10-31T09:17:50;11.10;99.90
19906;DHT22;10115;50.906;4.438;2023-10-31T09:20:16;11.20;99.90
19906;DHT22;10115;50.906;4.438;2023-10-31T09:22:41;11.20;99.90
19906;DHT22;10115;50.906;4.438;2023-10-31T09:25:07;11.40;99.90
19906;DHT22;10115;50.906;4.438;2023-10-31T09:27:33;11.60;99.90
19906;DHT22;10115;50.906;4.438;2023-10-31T09:29:58;11.60;99.90
19906;DHT22;10115;50.906;4.438;2023-10-31T09:32:24;11.60;99.90
19906;DHT22;10115;50.906;4.438;2023-10-31T09:34:50;11.70;99.90
19906;DHT22;10115;50.906;4.438;2023-10-31T09:37:15;11.60;99.90
19906;DHT22;10115;50.906;4.438;2023-10-31T09:39:42;11.60;99.90
19906;DHT22;10115;50.906;4.438;2023-10-31T09:42:07;11.60;99.90
19906;DHT22;10115;50.906;4.438;2023-10-31T09:44:33;11.80;99.90
19906;DHT22;10115;50.906;4.438;2023-10-31T09:47:01;11.90;99.90
19906;DHT22;10115;50.906;4.438;2023-10-31T09:49:27;11.70;99.90
19906;DHT22;10115;50.906;4.438;2023-10-31T09:51:54;11.70;99.90
19906;DHT22;10115;50.906;4.438;2023-10-31T09:54:20;11.60;99.90
19906;DHT22;10115;50.906;4.438;2023-10-31T09:56:46;11.50;99.90
19906;DHT22;10115;50.906;4.438;2023-10-31T09:59:14;11.40;99.90
19906;DHT22;10115;50.906;4.438;2023-10-31T10:01:41;11.30;99.90
19906;DHT22;10115;50.906;4.438;2023-10-31T10:04:07;11.30;99.90
19906;DHT22;10115;50.906;4.438;2023-10-31T10:06:33;11.40;99.90
19906;DHT22;10115;50.906;4.438;2023-10-31T10:08:59;11.30;99.90
19906;DHT22;10115;50.906;4.438;2023-10-31T10:11:25;11.30;99.90
19906;DHT22;10115;50.906;4.438;2023-10-31T10:13:54;11.20;99.90
19906;DHT22;10115;50.906;4.438;2023-10-31T10:16:33;11.10;99.90
19906;DHT22;10115;50.906;4.438;2023-10-31T10:19:18;11.20;99.90
19906;DHT22;10115;50.906;4.438;2023-10-31T10:21:55;11.40;99.90
19906;DHT22;10115;50.906;4.438;2023-10-31T10:24:21;11.60;99.90
19906;DHT22;10115;50.906;4.438;2023-10-31T10:26:48;11.70;99.90
19906;DHT22;10115;50.906;4.438;2023-10-31T10:29:14;11.60;99.90
19906;DHT22;10115;50.906;4.438;2023-10-31T10:31:40;11.60;99.90
19906;DHT22;10115;50.906;4.438;2023-10-31T10:34:10;11.80;99.90
19906;DHT22;10115;50.906;4.438;2023-10-31T10:36:38;11.70;99.90
19906;DHT22;10115;50.906;4.438;2023-10-31T10:39:06;11.70;99.90
19906;DHT22;10115;50.906;4.438;2023-10-31T10:41:35;11.70;99.90
19906;DHT22;10115;50.906;4.438;2023-10-31T10:44:06;11.60;99.90
19906;DHT22;10115;50.906;4.438;2023-10-31T10:46:36;11.60;99.90
19906;DHT22;10115;50.906;4.438;2023-10-31T10:49:05;11.60;99.90
19906;DHT22;10115;50.906;4.438;2023-10-31T10:51:53;11.50;99.90
19906;DHT22;10115;50.906;4.438;2023-10-31T10:54:26;11.60;99.90
19906;DHT22;10115;50.906;4.438;2023-10-31T10:57:03;11.70;99.90
19906;DHT22;10115;50.906;4.438;2023-10-31T10:59:40;11.80;99.90
19906;DHT22;10115;50.906;4.438;2023-10-31T11:02:06;11.70;99.90
19906;DHT22;10115;50.906;4.438;2023-10-31T11:04:34;11.90;99.90
19906;DHT22;10115;50.906;4.438;2023-10-31T11:07:00;12.00;99.90
19906;DHT22;10115;50.906;4.438;2023-10-31T11:09:27;12.00;99.90
19906;DHT22;10115;50.906;4.438;2023-10-31T11:11:54;11.90;99.90
19906;DHT22;10115;50.906;4.438;2023-10-31T11:14:20;11.90;99.90
19906;DHT22;10115;50.906;4.438;2023-10-31T11:16:51;11.70;99.90
19906;DHT22;10115;50.906;4.438;2023-10-31T11:19:17;11.60;99.90
19906;DHT22;10115;50.906;4.438;2023-10-31T11:22:00;11.60;99.90
19906;DHT22;10115;50.906;4.438;2023-10-31T11:24:33;11.70;99.90
19906;DHT22;10115;50.906;4.438;2023-10-31T11:27:02;11.80;99.90
19906;DHT22;10115;50.906;4.438;2023-10-31T11:29:28;11.90;99.90
19906;DHT22;10115;50.906;4.438;2023-10-31T11:31:55;11.90;99.90
19906;DHT22;10115;50.906;4.438;2023-10-31T11:34:26;11.80;99.90
19906;DHT22;10115;50.906;4.438;2023-10-31T11:36:52;11.90;99.90
19906;DHT22;10115;50.906;4.438;2023-10-31T11:39:20;11.90;99.90
19906;DHT22;10115;50.906;4.438;2023-10-31T11:41:54;12.00;99.90
19906;DHT22;10115;50.906;4.438;2023-10-31T11:44:23;11.90;99.90
19906;DHT22;10115;50.906;4.438;2023-10-31T11:46:50;11.80;99.90
19906;DHT22;10115;50.906;4.438;2023-10-31T11:49:44;11.80;99.90
19906;DHT22;10115;50.906;4.438;2023-10-31T11:52:17;11.70;99.90
19906;DHT22;10115;50.906;4.438;2023-10-31T11:54:43;11.80;99.90
19906;DHT22;10115;50.906;4.438;2023-10-31T11:57:09;11.80;99.90
19906;DHT22;10115;50.906;4.438;2023-10-31T11:59:39;11.80;99.90
19906;DHT22;10115;50.906;4.438;2023-10-31T12:02:14;11.70;99.90
19906;DHT22;10115;50.906;4.438;2023-10-31T12:04:41;11.60;99.90
19906;DHT22;10115;50.906;4.438;2023-10-31T12:07:06;11.70;99.90
19906;DHT22;10115;50.906;4.438;2023-10-31T12:09:32;11.70;99.90
19906;DHT22;10115;50.906;4.438;2023-10-31T12:11:58;11.60;99.90
19906;DHT22;10115;50.906;4.438;2023-10-31T12:14:23;11.50;99.90
19906;DHT22;10115;50.906;4.438;2023-10-31T12:16:49;11.70;99.90
19906;DHT22;10115;50.906;4.438;2023-10-31T12:19:15;11.80;99.90
19906;DHT22;10115;50.906;4.438;2023-10-31T12:21:45;11.80;99.90
19906;DHT22;10115;50.906;4.438;2023-10-31T12:24:17;11.60;99.90
19906;DHT22;10115;50.906;4.438;2023-10-31T12:26:44;11.50;99.90
19906;DHT22;10115;50.906;4.438;2023-10-31T12:29:13;11.40;99.90
19906;DHT22;10115;50.906;4.438;2023-10-31T12:31:48;11.20;99.90
19906;DHT22;10115;50.906;4.438;2023-10-31T12:34:21;11.20;99.90
19906;DHT22;10115;50.906;4.438;2023-10-31T12:36:49;11.10;99.90
19906;DHT22;10115;50.906;4.438;2023-10-31T12:39:16;11.10;99.90
19906;DHT22;10115;50.906;4.438;2023-10-31T12:41:42;11.20;99.90
19906;DHT22;10115;50.906;4.438;2023-10-31T12:44:09;11.20;99.90
19906;DHT22;10115;50.906;4.438;2023-10-31T12:46:39;11.20;99.90
19906;DHT22;10115;50.906;4.438;2023-10-31T12:49:11;11.30;99.90
19906;DHT22;10115;50.906;4.438;2023-10-31T12:51:37;11.10;99.90
19906;DHT22;10115;50.906;4.438;2023-10-31T12:54:03;11.30;99.90
19906;DHT22;10115;50.906;4.438;2023-10-31T12:56:38;11.40;99.90
19906;DHT22;10115;50.906;4.438;2023-10-31T12:59:06;11.50;99.90
19906;DHT22;10115;50.906;4.438;2023-10-31T13:01:41;11.40;99.90
19906;DHT22;10115;50.906;4.438;2023-10-31T13:04:07;11.40;99.90
19906;DHT22;10115;50.906;4.438;2023-10-31T13:06:33;11.30;99.90
19906;DHT22;10115;50.906;4.438;2023-10-31T13:08:58;11.30;99.90
19906;DHT22;10115;50.906;4.438;2023-10-31T13:11:29;11.30;99.90
19906;DHT22;10115;50.906;4.438;2023-10-31T13:13:55;11.50;99.90
19906;DHT22;10115;50.906;4.438;2023-10-31T13:16:20;11.50;99.90
19906;DHT22;10115;50.906;4.438;2023-10-31T13:18:46;11.40;99.90
19906;DHT22;10115;50.906;4.438;2023-10-31T13:21:12;11.30;99.90
19906;DHT22;10115;50.906;4.438;2023-10-31T13:23:40;11.30;99.90
19906;DHT22;10115;50.906;4.438;2023-10-31T13:26:09;11.30;99.90
19906;DHT22;10115;50.906;4.438;2023-10-31T13:28:34;11.40;99.90
19906;DHT22;10115;50.906;4.438;2023-10-31T13:31:00;11.50;99.90
19906;DHT22;10115;50.906;4.438;2023-10-31T13:33:27;11.40;99.90
19906;DHT22;10115;50.906;4.438;2023-10-31T13:35:53;11.40;99.90
19906;DHT22;10115;50.906;4.438;2023-10-31T13:38:19;11.30;99.90
19906;DHT22;10115;50.906;4.438;2023-10-31T13:40:44;11.30;99.90
19906;DHT22;10115;50.906;4.438;2023-10-31T13:43:10;11.40;99.90
19906;DHT22;10115;50.906;4.438;2023-10-31T13:45:36;11.40;99.90
19906;DHT22;10115;50.906;4.438;2023-10-31T13:48:02;11.40;99.90
19906;DHT22;10115;50.906;4.438;2023-10-31T13:50:28;11.60;99.90
19906;DHT22;10115;50.906;4.438;2023-10-31T13:52:54;11.60;99.90
19906;DHT22;10115;50.906;4.438;2023-10-31T13:55:19;11.70;99.90
19906;DHT22;10115;50.906;4.438;2023-10-31T13:57:45;11.80;99.90
19906;DHT22;10115;50.906;4.438;2023-10-31T14:00:11;11.80;99.90
19906;DHT22;10115;50.906;4.438;2023-10-31T14:02:38;11.90;99.90
19906;DHT22;10115;50.906;4.438;2023-10-31T14:05:04;12.30;99.90
19906;DHT22;10115;50.906;4.438;2023-10-31T14:07:30;12.90;99.90
19906;DHT22;10115;50.906;4.438;2023-10-31T14:09:56;13.30;99.90
19906;DHT22;10115;50.906;4.438;2023-10-31T14:12:23;13.50;99.90
19906;DHT22;10115;50.906;4.438;2023-10-31T14:14:48;13.10;99.90
19906;DHT22;10115;50.906;4.438;2023-10-31T14:17:17;12.80;99.90
19906;DHT22;10115;50.906;4.438;2023-10-31T14:19:43;12.70;99.90
19906;DHT22;10115;50.906;4.438;2023-10-31T14:22:11;12.50;99.90
19906;DHT22;10115;50.906;4.438;2023-10-31T14:24:37;12.50;99.90
19906;DHT22;10115;50.906;4.438;2023-10-31T14:27:03;12.50;99.90
19906;DHT22;10115;50.906;4.438;2023-10-31T14:29:28;12.50;99.90
19906;DHT22;10115;50.906;4.438;2023-10-31T14:31:54;12.70;99.90
19906;DHT22;10115;50.906;4.438;2023-10-31T14:34:20;12.90;99.90
19906;DHT22;10115;50.906;4.438;2023-10-31T14:36:46;12.80;99.90
19906;DHT22;10115;50.906;4.438;2023-10-31T14:39:12;13.10;99.90
19906;DHT22;10115;50.906;4.438;2023-10-31T14:41:39;13.20;99.90
19906;DHT22;10115;50.906;4.438;2023-10-31T14:44:05;13.00;99.90
19906;DHT22;10115;50.906;4.438;2023-10-31T14:46:31;12.90;99.90
19906;DHT22;10115;50.906;4.438;2023-10-31T14:48:58;12.70;99.90
19906;DHT22;10115;50.906;4.438;2023-10-31T14:51:23;12.60;99.90
19906;DHT22;10115;50.906;4.438;2023-10-31T14:53:49;12.60;99.90
19906;DHT22;10115;50.906;4.438;2023-10-31T14:56:15;12.60;99.90
19906;DHT22;10115;50.906;4.438;2023-10-31T14:58:41;12.60;99.90
19906;DHT22;10115;50.906;4.438;2023-10-31T15:01:07;12.70;99.90
19906;DHT22;10115;50.906;4.438;2023-10-31T15:03:32;12.70;99.90
19906;DHT22;10115;50.906;4.438;2023-10-31T15:05:59;12.50;99.90
19906;DHT22;10115;50.906;4.438;2023-10-31T15:08:24;12.40;99.90
19906;DHT22;10115;50.906;4.438;2023-10-31T15:10:53;12.40;99.90
19906;DHT22;10115;50.906;4.438;2023-10-31T15:13:20;12.50;99.90
19906;DHT22;10115;50.906;4.438;2023-10-31T15:15:46;12.50;99.90
19906;DHT22;10115;50.906;4.438;2023-10-31T15:18:12;12.50;99.90
19906;DHT22;10115;50.906;4.438;2023-10-31T15:20:37;12.60;99.90
19906;DHT22;10115;50.906;4.438;2023-10-31T15:23:03;12.60;99.90
19906;DHT22;10115;50.906;4.438;2023-10-31T15:25:29;12.60;99.90
19906;DHT22;10115;50.906;4.438;2023-10-31T15:27:54;12.50;99.90